Fürstenfeldbruck Airport ETSF

Flugplatz Daten

Name: Fürstenfeldbruck Airport

Ident: ETSF

Lat: 48,20555496

Long: 11,26694393

Platzhöhe: 1703 ft

IataCode: FEL

City: Fürstenfeldbruck

Metar

2019/08/09 15:00
SGEN 091500Z 27010KT 5000 DZBR SCT005 OVC025 16/16 Q1017 RETSFG

Taf

Gewünschte Webcam nicht vorhanden? Dann fügen Sie eine hinzu. Sie wird dann so schnell wie möglich freigeschaltet
Url: Title: